San Diego, California
Traffic Map
Current Weather Conditions
San Diego, California
Scattered Clouds
Scattered Clouds
16°
Feels Like: 16°
Wind Chill: 16° Ceiling: Unl
Heat Index: 16° Visibility: 10mi
Dew Point: Wind: 0mph
Humidity: 50% Direction: ° ()
Pressure: 29.97in Gusts: 0mph
Raw Report DataKSAN 031751Z 00000KT 10SM FEW030 SCT110 SCT220 16/06 A2997 RMK AO2 SLP149 T01610056 10167 20111 51009
Traffic Incident Summary
Active as of:
Severity:
Category:
InformationThere was an issue retrieving the traffic information for this location. Please try a different location or try again shortly.
Advertisements
Track Severe Weather on mobile